Time;durP1;ratioP1;P1;durP2;ratioP2;P2;SDS_P1;SDS_P2;PMS_P1;PMS_P2;Temp;Humidity;BMP_temperature;BMP_pressure;BME280_temperature;BME280_humidity;BME280_pressure;Samples;Min_cycle;Max_cycle;Signal;HPM_P1;HPM_P2
2022/09/27 00:02:13;;;;;;;399.98;96.85;;;;;;;16.53;95.47;93932.91;4994081;28;20212;-74
2022/09/27 00:04:39;;;;;;;350.95;52.72;;;;;;;16.49;96.06;93948.63;4993758;28;20235;-74
2022/09/27 00:07:04;;;;;;;294.90;102.85;;;;;;;16.46;96.10;93929.75;4993569;28;20267;-74
2022/09/27 00:09:30;;;;;;;230.63;40.92;;;;;;;16.51;96.67;93922.56;4993681;28;20180;-73
2022/09/27 00:11:55;;;;;;;190.40;38.75;;;;;;;16.51;95.96;93924.44;4992969;28;20181;-74
2022/09/27 00:14:21;;;;;;;238.27;44.13;;;;;;;16.50;96.31;93926.31;4993422;28;20730;-74
2022/09/27 00:16:46;;;;;;;171.65;30.00;;;;;;;16.50;97.09;93944.09;4993224;28;20184;-73
2022/09/27 00:19:15;;;;;;;192.32;36.33;;;;;;;16.56;97.29;93953.63;4993622;28;20437;-74
2022/09/27 00:21:42;;;;;;;311.20;43.15;;;;;;;16.53;96.96;93957.63;4993433;28;20667;-74
2022/09/27 00:24:11;;;;;;;174.60;26.58;;;;;;;16.50;96.93;93962.69;4993425;28;20185;-74
2022/09/27 00:26:37;;;;;;;175.60;28.10;;;;;;;16.50;95.88;93968.81;4992887;28;20642;-74
2022/09/27 00:29:03;;;;;;;249.18;38.08;;;;;;;16.46;96.33;93966.94;4993314;28;20185;-74
2022/09/27 00:31:30;;;;;;;200.43;32.38;;;;;;;16.40;97.04;93955.53;4987493;28;20161;-74
2022/09/27 00:33:58;;;;;;;187.00;31.38;;;;;;;16.45;96.92;93958.19;4993181;28;20189;-74
2022/09/27 00:36:24;;;;;;;278.17;32.60;;;;;;;16.47;97.10;93936.66;4993201;28;20187;-74
2022/09/27 00:38:50;;;;;;;214.73;36.92;;;;;;;16.36;95.31;93901.34;4993222;28;20680;-74
2022/09/27 00:41:23;;;;;;;287.70;45.10;;;;;;;16.47;95.81;93929.47;4993113;28;20181;-74
2022/09/27 00:43:54;;;;;;;254.18;40.38;;;;;;;16.42;96.09;93916.22;4986053;28;20185;-73
2022/09/27 00:46:32;;;;;;;245.32;45.22;;;;;;;16.34;94.86;93916.78;4993277;28;21020;-74
2022/09/27 00:49:30;;;;;;;465.95;107.55;;;;;;;16.19;95.91;93911.47;4992888;28;20180;-73
2022/09/27 00:52:03;;;;;;;363.83;128.93;;;;;;;16.11;96.31;93888.94;4993156;28;20219;-73
2022/09/27 00:54:30;;;;;;;275.08;50.70;;;;;;;16.00;96.07;93876.72;4992855;28;20176;-74
2022/09/27 00:56:57;;;;;;;224.73;38.85;;;;;;;16.08;96.43;93889.47;4992844;28;20656;-74
2022/09/27 00:59:29;;;;;;;252.18;38.35;;;;;;;16.01;97.17;93888.94;4992561;28;20259;-74
2022/09/27 01:01:55;;;;;;;9.55;8.65;;;;;;;15.78;97.68;93900.91;4992574;28;20239;-73
2022/09/27 01:04:23;;;;;;;9.55;5.40;;;;;;;15.73;97.88;93906.22;4975231;28;20177;-73
2022/09/27 01:06:49;;;;;;;7.18;5.50;;;;;;;15.72;98.33;93917.91;4992496;28;20260;-74
2022/09/27 01:09:15;;;;;;;7.85;5.60;;;;;;;15.77;98.01;93911.78;4992480;28;20188;-74
2022/09/27 01:11:45;;;;;;;7.35;5.70;;;;;;;15.75;98.48;93911.25;4992358;28;20176;-73
2022/09/27 01:14:40;;;;;;;7.43;5.72;;;;;;;15.80;98.00;93901.44;4992357;28;20184;-74
2022/09/27 01:17:12;;;;;;;7.43;5.10;;;;;;;15.72;98.23;93895.88;4992406;28;20205;-74
2022/09/27 01:20:14;;;;;;;6.45;4.97;;;;;;;15.70;97.84;93890.84;4992446;28;20180;-73
2022/09/27 01:22:51;;;;;;;6.72;4.97;;;;;;;15.70;98.16;93882.88;4992152;28;20188;-74
2022/09/27 01:25:32;;;;;;;7.22;5.65;;;;;;;15.71;98.13;93896.94;4991950;28;20181;-74
2022/09/27 01:28:08;;;;;;;7.57;5.40;;;;;;;15.72;98.34;93914.44;4992196;28;20296;-74
2022/09/27 01:30:38;;;;;;;7.55;5.50;;;;;;;15.69;98.83;93915.78;4992182;28;20579;-74
2022/09/27 01:33:22;;;;;;;6.47;5.60;;;;;;;15.69;98.67;93904.38;4992118;28;20188;-74
2022/09/27 01:35:51;;;;;;;11.00;5.63;;;;;;;15.77;99.04;93904.63;4992041;28;20187;-74
2022/09/27 01:39:00;;;;;;;8.63;5.30;;;;;;;15.81;98.40;93892.44;4991923;28;20574;-74
2022/09/27 01:41:35;;;;;;;8.93;5.57;;;;;;;15.80;98.07;93898.78;4967728;28;20196;-73
2022/09/27 01:44:26;;;;;;;6.50;4.90;;;;;;;15.79;98.34;93899.06;4990523;28;20255;-74
2022/09/27 01:46:55;;;;;;;9.18;4.90;;;;;;;15.57;98.41;93877.31;4991463;28;20679;-74
2022/09/27 01:49:44;;;;;;;7.88;5.65;;;;;;;15.39;98.99;93847.53;4991955;28;20254;-74
2022/09/27 01:52:14;;;;;;;7.05;5.28;;;;;;;15.55;99.17;93900.66;4991625;28;20616;-74
2022/09/27 01:54:46;;;;;;;10.27;7.78;;;;;;;15.64;99.67;93899.06;4991685;28;20239;-74
2022/09/27 01:57:19;;;;;;;11.50;6.93;;;;;;;15.72;100.00;93895.88;4991623;28;20208;-73
2022/09/27 01:59:49;;;;;;;14.35;9.27;;;;;;;15.78;100.00;93890.28;4991596;28;20181;-74
2022/09/27 02:02:18;;;;;;;12.82;8.82;;;;;;;15.80;99.26;93882.88;4991624;28;20184;-73
2022/09/27 02:04:47;;;;;;;11.98;8.82;;;;;;;15.82;99.18;93895.88;4991687;28;20185;-73
2022/09/27 02:07:22;;;;;;;21.90;12.32;;;;;;;15.74;99.52;93888.47;4991329;28;20283;-74
2022/09/27 02:10:04;;;;;;;17.90;13.15;;;;;;;15.55;100.00;93853.69;4991430;28;20204;-74
2022/09/27 02:12:34;;;;;;;17.88;12.93;;;;;;;15.61;100.00;93843.88;4991546;28;20177;-74
2022/09/27 02:15:07;;;;;;;17.55;12.35;;;;;;;15.76;99.82;93867.72;4991314;28;20185;-74
2022/09/27 02:17:58;;;;;;;16.15;11.20;;;;;;;15.78;99.60;93861.09;4991468;28;20716;-74
2022/09/27 02:20:33;;;;;;;16.35;11.93;;;;;;;15.75;99.65;93852.88;4991281;28;20573;-74
2022/09/27 02:23:01;;;;;;;16.98;9.90;;;;;;;15.80;100.00;93836.97;4991279;28;20257;-74
2022/09/27 02:25:35;;;;;;;17.05;12.30;;;;;;;15.78;100.00;93836.44;4991279;28;20184;-74
2022/09/27 02:28:26;;;;;;;18.85;10.20;;;;;;;15.84;99.41;93820.22;4991441;28;20181;-74
2022/09/27 02:30:53;;;;;;;12.98;9.15;;;;;;;15.62;98.96;93779.94;4991318;28;20667;-74
2022/09/27 02:33:23;;;;;;;8.43;6.63;;;;;;;15.76;99.21;93817.31;4991218;28;20173;-73
2022/09/27 02:35:48;;;;;;;10.02;6.80;;;;;;;15.74;99.51;93814.94;4990884;28;20176;-74
2022/09/27 02:38:15;;;;;;;10.20;6.70;;;;;;;15.71;99.51;93817.34;4990828;28;20219;-74
2022/09/27 02:40:43;;;;;;;8.35;6.05;;;;;;;15.69;99.67;93812.28;4990847;28;20180;-74
2022/09/27 02:43:09;;;;;;;12.20;6.55;;;;;;;15.57;99.89;93808.34;4990684;28;20227;-74
2022/09/27 02:45:46;;;;;;;8.45;5.97;;;;;;;15.59;100.00;93811.50;4990840;28;20256;-74
2022/09/27 02:48:28;;;;;;;8.70;5.90;;;;;;;15.41;100.00;93847.28;4990853;28;20184;-73
2022/09/27 02:51:03;;;;;;;9.07;6.15;;;;;;;15.34;100.00;93838.81;4990892;28;20185;-73
2022/09/27 02:53:51;;;;;;;11.43;6.28;;;;;;;15.41;100.00;93832.19;4991016;28;20179;-74
2022/09/27 02:56:42;;;;;;;12.00;5.93;;;;;;;15.53;100.00;93829.25;4990910;28;20204;-74
2022/09/27 02:59:27;;;;;;;8.05;5.93;;;;;;;15.62;100.00;93837.50;4990780;28;20598;-73
2022/09/27 03:02:20;;;;;;;9.70;5.60;;;;;;;15.64;100.00;93822.94;4991145;28;20244;-74
2022/09/27 03:05:00;;;;;;;6.03;5.25;;;;;;;15.62;100.00;93811.78;4990883;28;20189;-74
2022/09/27 03:07:26;;;;;;;9.35;6.20;;;;;;;15.52;100.00;93782.56;4990617;28;20217;-74
2022/09/27 03:09:53;;;;;;;9.23;6.20;;;;;;;15.56;100.00;93788.19;4990707;28;20185;-74
2022/09/27 03:12:24;;;;;;;7.97;5.88;;;;;;;15.62;100.00;93793.22;4990769;28;20267;-74
2022/09/27 03:14:55;;;;;;;7.20;5.65;;;;;;;15.64;100.00;93782.34;4990879;28;20679;-74
2022/09/27 03:17:21;;;;;;;6.28;5.45;;;;;;;15.71;100.00;93764.28;4989979;28;20201;-74
2022/09/27 03:19:47;;;;;;;11.20;6.00;;;;;;;15.74;100.00;93758.44;4990815;28;20239;-74
2022/09/27 03:22:12;;;;;;;8.23;6.18;;;;;;;15.66;100.00;93772.22;4990544;28;20182;-74
2022/09/27 03:24:38;;;;;;;8.05;5.60;;;;;;;15.55;100.00;93739.63;4990708;28;20188;-74
2022/09/27 03:27:03;;;;;;;7.85;6.40;;;;;;;15.68;100.00;93772.75;4990684;28;20177;-74
2022/09/27 03:29:29;;;;;;;7.72;6.22;;;;;;;15.67;100.00;93765.84;4990956;28;20607;-74
2022/09/27 03:31:54;;;;;;;8.48;5.90;;;;;;;15.65;100.00;93766.16;4990847;28;20173;-74
2022/09/27 03:34:21;;;;;;;9.68;6.22;;;;;;;15.71;100.00;93769.56;4973664;28;20939;-74
2022/09/27 03:36:46;;;;;;;8.98;6.35;;;;;;;15.74;100.00;93767.16;4990708;28;20622;-74
2022/09/27 03:39:11;;;;;;;10.15;6.53;;;;;;;15.78;100.00;93770.88;4990624;28;20177;-74
2022/09/27 03:41:37;;;;;;;8.95;5.82;;;;;;;15.77;100.00;93769.28;4990432;28;20227;-74
2022/09/27 03:44:03;;;;;;;9.60;7.07;;;;;;;15.66;100.00;93740.38;4990486;28;20180;-75
2022/09/27 03:46:28;;;;;;;9.43;6.32;;;;;;;15.81;100.00;93762.41;4988549;28;20563;-75
2022/09/27 03:48:54;;;;;;;9.60;6.38;;;;;;;15.85;100.00;93762.63;4993842;28;20177;-73
2022/09/27 03:51:19;;;;;;;7.35;5.75;;;;;;;15.91;100.00;93772.19;4993969;28;20208;-73
2022/09/27 03:53:45;;;;;;;9.20;6.28;;;;;;;15.91;100.00;93780.16;4993853;28;20177;-73
2022/09/27 03:56:11;;;;;;;10.07;7.60;;;;;;;15.90;100.00;93775.91;4993784;28;20173;-74
2022/09/27 03:58:36;;;;;;;11.38;7.38;;;;;;;15.78;100.00;93747.00;4993718;28;20208;-74
2022/09/27 04:01:02;;;;;;;9.30;7.45;;;;;;;15.93;100.00;93767.38;4993792;28;20231;-74
2022/09/27 04:03:27;;;;;;;10.23;7.57;;;;;;;15.99;100.00;93766.31;4993409;28;20177;-74
2022/09/27 04:05:53;;;;;;;12.00;7.93;;;;;;;15.89;100.00;93758.38;4993761;28;20185;-74
2022/09/27 04:08:20;;;;;;;12.65;7.93;;;;;;;15.93;100.00;93767.38;4993512;28;20213;-73
2022/09/27 04:10:46;;;;;;;10.40;7.40;;;;;;;15.96;100.00;93769.50;4993565;28;20181;-74
2022/09/27 04:13:12;;;;;;;10.23;7.50;;;;;;;15.99;100.00;93762.88;4993888;28;20246;-74
2022/09/27 04:15:38;;;;;;;13.32;7.53;;;;;;;15.92;100.00;93763.13;4993808;28;20181;-73
2022/09/27 04:18:04;;;;;;;12.48;8.43;;;;;;;15.95;100.00;93764.47;4993418;28;20680;-73
2022/09/27 04:20:30;;;;;;;10.48;7.57;;;;;;;15.97;100.00;93763.13;4993233;28;20250;-74
2022/09/27 04:22:55;;;;;;;10.85;8.32;;;;;;;15.67;100.00;93716.25;4989544;28;20672;-73
2022/09/27 04:25:21;;;;;;;11.65;7.82;;;;;;;15.91;100.00;93761.56;4990611;28;20173;-74
2022/09/27 04:27:47;;;;;;;11.45;7.15;;;;;;;15.90;100.00;93754.66;4993278;28;20180;-74
2022/09/27 04:30:13;;;;;;;12.45;8.13;;;;;;;15.87;100.00;93759.72;4993284;28;20558;-73
2022/09/27 04:32:43;;;;;;;12.13;7.95;;;;;;;15.83;100.00;93754.94;4975817;28;20173;-73
2022/09/27 04:37:55;;;;;;;17.15;8.73;;;;;;;15.85;100.00;93770.59;4993011;28;20631;-73
2022/09/27 04:40:21;;;;;;;10.57;7.75;;;;;;;15.91;100.00;93761.56;4992414;28;20655;-73
2022/09/27 04:42:48;;;;;;;12.73;9.20;;;;;;;15.88;100.00;93759.44;4991277;28;20185;-73
2022/09/27 04:45:13;;;;;;;14.30;9.48;;;;;;;15.94;100.00;93765.53;4993008;28;20577;-74
2022/09/27 04:47:47;;;;;;;14.70;10.88;;;;;;;15.95;100.00;93773.22;4993211;28;20174;-75
2022/09/27 04:50:14;;;;;;;15.90;10.43;;;;;;;15.96;100.00;93766.84;4993162;28;20657;-74
2022/09/27 04:52:40;;;;;;;24.45;12.88;;;;;;;16.02;100.00;93772.94;4992462;28;20169;-73
2022/09/27 04:55:07;;;;;;;19.35;12.38;;;;;;;16.04;100.00;93776.91;4987895;28;20181;-74
2022/09/27 04:57:33;;;;;;;17.55;11.73;;;;;;;16.04;100.00;93774.25;4997901;28;20208;-74
2022/09/27 04:59:59;;;;;;;14.52;9.20;;;;;;;16.07;100.00;93772.94;4998881;28;20185;-73
2022/09/27 05:02:26;;;;;;;13.35;8.00;;;;;;;15.94;100.00;93734.47;5001228;28;20188;-73
2022/09/27 05:04:52;;;;;;;13.15;7.93;;;;;;;16.13;99.69;93764.66;5001048;28;20248;-74
2022/09/27 05:07:18;;;;;;;9.45;6.68;;;;;;;15.87;99.74;93726.00;4981280;28;20228;-74
2022/09/27 05:09:44;;;;;;;10.27;7.18;;;;;;;16.10;99.71;93759.09;4992691;28;20185;-73
2022/09/27 05:12:12;;;;;;;12.90;9.15;;;;;;;16.03;100.00;93742.66;4992637;28;20169;-73
2022/09/27 05:14:38;;;;;;;14.27;8.32;;;;;;;15.98;100.00;93738.19;4992529;28;20173;-73
2022/09/27 05:17:04;;;;;;;8.48;7.43;;;;;;;16.08;100.00;93732.03;4986595;28;20185;-74
2022/09/27 05:19:29;;;;;;;10.63;7.55;;;;;;;16.04;100.00;93729.13;4992463;28;20179;-73
2022/09/27 05:21:55;;;;;;;11.95;7.97;;;;;;;15.87;100.00;93718.03;4992283;28;20173;-73
2022/09/27 05:24:20;;;;;;;12.07;8.50;;;;;;;16.01;100.00;93727.00;4992303;28;20567;-73
2022/09/27 05:26:46;;;;;;;10.63;7.60;;;;;;;15.99;100.00;93726.50;4992192;28;20640;-74
2022/09/27 05:29:11;;;;;;;12.35;8.43;;;;;;;15.97;100.00;93722.53;4985232;28;20188;-74
2022/09/27 05:31:37;;;;;;;12.48;8.25;;;;;;;15.98;100.00;93724.13;4992085;28;20176;-74
2022/09/27 05:34:03;;;;;;;10.70;7.50;;;;;;;15.83;100.00;93706.38;4992225;28;20185;-74
2022/09/27 05:36:29;;;;;;;10.13;7.53;;;;;;;15.96;100.00;93731.56;4992179;28;20255;-74
2022/09/27 05:38:55;;;;;;;10.52;8.07;;;;;;;15.93;100.00;93732.88;4991738;28;20228;-74
2022/09/27 05:41:20;;;;;;;11.02;8.10;;;;;;;15.85;100.00;93730.78;4996365;28;20231;-74
2022/09/27 05:43:46;;;;;;;8.93;7.18;;;;;;;16.02;100.00;93735.75;4990034;28;20257;-74
2022/09/27 05:46:11;;;;;;;10.00;6.90;;;;;;;16.04;100.00;93739.75;4992066;28;20169;-74
2022/09/27 05:48:37;;;;;;;15.27;6.70;;;;;;;15.95;99.86;93740.56;4991923;28;20170;-74
2022/09/27 05:51:02;;;;;;;11.18;7.20;;;;;;;15.85;100.00;93744.06;4991861;28;20181;-74
2022/09/27 05:53:28;;;;;;;9.20;7.18;;;;;;;15.89;100.00;93737.16;4987962;28;20305;-74
2022/09/27 05:55:53;;;;;;;10.95;7.50;;;;;;;15.99;100.00;93738.97;4998416;28;20251;-74
2022/09/27 05:58:19;;;;;;;11.15;7.75;;;;;;;15.98;100.00;93751.47;4991815;28;20193;-75
2022/09/27 06:00:44;;;;;;;12.52;7.60;;;;;;;15.92;100.00;93744.56;4991649;28;20173;-74
2022/09/27 06:03:11;;;;;;;11.57;8.30;;;;;;;15.96;99.94;93750.13;4986137;28;20659;-74
2022/09/27 06:05:39;;;;;;;11.02;7.15;;;;;;;15.79;99.68;93735.31;4991573;28;20663;-74
2022/09/27 06:08:10;;;;;;;12.60;7.57;;;;;;;15.80;99.60;93750.19;4991632;28;20216;-74
2022/09/27 06:10:36;;;;;;;9.13;7.72;;;;;;;15.73;100.00;93759.50;4991225;28;20182;-74
2022/09/27 06:13:04;;;;;;;10.88;7.82;;;;;;;15.72;100.00;93742.78;4993697;28;20274;-74
2022/09/27 06:15:31;;;;;;;17.40;9.50;;;;;;;15.75;100.00;93747.53;4991545;28;20177;-74
2022/09/27 06:18:01;;;;;;;15.52;8.82;;;;;;;15.81;100.00;93761.59;4991529;28;20224;-74
2022/09/27 06:20:26;;;;;;;15.20;7.97;;;;;;;15.77;100.00;93755.22;4988443;28;20185;-74
2022/09/27 06:22:53;;;;;;;13.73;8.40;;;;;;;15.83;100.00;93760.25;4991556;28;20551;-74
2022/09/27 06:25:19;;;;;;;11.27;8.98;;;;;;;15.95;100.00;93741.38;4974002;28;20250;-74
2022/09/27 06:27:44;;;;;;;14.57;8.57;;;;;;;16.08;100.00;93730.19;4991575;28;20180;-74
2022/09/27 06:30:11;;;;;;;11.55;8.73;;;;;;;16.13;100.00;93743.41;4991445;28;20185;-74
2022/09/27 06:32:37;;;;;;;11.95;8.65;;;;;;;16.06;100.00;93742.94;4991293;28;20212;-74
2022/09/27 06:35:04;;;;;;;11.20;9.18;;;;;;;16.13;100.00;93737.31;4991381;28;20213;-74
2022/09/27 06:37:30;;;;;;;12.13;8.27;;;;;;;16.14;100.00;93728.28;4991181;28;20773;-74
2022/09/27 06:39:56;;;;;;;11.30;8.40;;;;;;;16.18;100.00;93730.13;4991200;28;20272;-74
2022/09/27 06:42:21;;;;;;;12.80;8.13;;;;;;;16.04;100.00;93697.28;4991337;28;20679;-74
2022/09/27 06:44:48;;;;;;;14.05;8.57;;;;;;;16.28;100.00;93733.78;4991262;28;20181;-74
2022/09/27 06:47:15;;;;;;;34.15;21.92;;;;;;;16.33;100.00;93752.38;4991154;28;20181;-74
2022/09/27 06:49:42;;;;;;;10.85;8.25;;;;;;;16.32;100.00;93740.16;4987809;28;20173;-74
2022/09/27 06:52:07;;;;;;;13.02;8.05;;;;;;;16.19;100.00;93704.34;4986727;28;20652;-74
2022/09/27 06:54:33;;;;;;;12.43;8.10;;;;;;;16.38;100.00;93715.94;4991327;28;20191;-74
2022/09/27 06:56:58;;;;;;;11.70;8.23;;;;;;;16.42;99.94;93714.34;4991139;28;20965;-74
2022/09/27 07:02:07;;;;;;;13.10;9.05;;;;;;;16.14;100.00;93728.28;4990925;28;20254;-74
2022/09/27 07:04:33;;;;;;;15.57;8.93;;;;;;;16.12;100.00;93725.91;4990743;28;20673;-74
2022/09/27 07:06:58;;;;;;;12.00;8.93;;;;;;;16.35;100.00;93750.22;4990979;28;20220;-74
2022/09/27 07:09:24;;;;;;;16.45;9.88;;;;;;;16.47;100.00;93745.38;4990948;28;20679;-74
2022/09/27 07:11:49;;;;;;;11.77;8.90;;;;;;;16.44;100.00;93748.56;4990956;28;20644;-74
2022/09/27 07:14:16;;;;;;;18.63;10.43;;;;;;;16.49;100.00;93746.69;4973490;28;20721;-74
2022/09/27 07:16:42;;;;;;;14.75;9.57;;;;;;;16.37;100.00;93754.19;4991036;28;20256;-74
2022/09/27 07:19:10;;;;;;;15.95;10.85;;;;;;;16.43;100.00;93747.78;4993395;28;20197;-74
2022/09/27 07:21:36;;;;;;;15.13;9.50;;;;;;;16.41;100.00;93765.06;4989821;28;20185;-74
2022/09/27 07:24:01;;;;;;;13.52;9.60;;;;;;;16.45;100.00;93766.09;4994284;28;21695;-74
2022/09/27 07:26:27;;;;;;;20.05;11.48;;;;;;;16.48;100.00;93769.03;4994552;28;20189;-74
2022/09/27 07:28:52;;;;;;;17.35;10.88;;;;;;;16.49;100.00;93770.63;4994608;28;20169;-74
2022/09/27 07:31:18;;;;;;;16.23;11.02;;;;;;;16.56;100.00;93770.31;4994680;28;20185;-74
2022/09/27 07:33:44;;;;;;;17.27;10.32;;;;;;;16.66;100.00;93770.28;4994596;28;20192;-74
2022/09/27 07:36:11;;;;;;;15.90;10.88;;;;;;;16.69;100.00;93763.63;4994450;28;20684;-74
2022/09/27 07:38:37;;;;;;;17.70;11.32;;;;;;;16.66;100.00;93754.34;4991004;28;20200;-74
2022/09/27 07:41:12;;;;;;;17.17;11.32;;;;;;;16.81;100.00;93766.72;4993285;28;20173;-74
2022/09/27 07:43:37;;;;;;;12.98;10.02;;;;;;;16.85;100.00;93760.59;4988021;28;20181;-75
2022/09/27 07:46:03;;;;;;;12.40;9.32;;;;;;;16.89;100.00;93766.13;4976542;28;20185;-74
2022/09/27 07:48:28;;;;;;;14.77;10.05;;;;;;;16.93;100.00;93773.31;4986079;28;20169;-74
2022/09/27 07:50:53;;;;;;;12.45;9.43;;;;;;;17.00;100.00;93762.34;4994290;28;20185;-74
2022/09/27 07:53:19;;;;;;;15.02;10.65;;;;;;;17.08;99.46;93752.97;4994250;28;20954;-74
2022/09/27 07:55:50;;;;;;;14.85;9.90;;;;;;;17.00;98.92;93758.88;4994007;28;20192;-73
2022/09/27 07:58:16;;;;;;;13.02;9.27;;;;;;;16.91;98.31;93770.13;4994037;28;20652;-75
2022/09/27 08:00:42;;;;;;;12.73;8.77;;;;;;;16.80;98.56;93752.66;4994310;28;20272;-74
2022/09/27 08:03:16;;;;;;;13.90;9.32;;;;;;;16.52;99.99;93762.06;4986492;28;20195;-74
2022/09/27 08:05:43;;;;;;;15.73;10.65;;;;;;;16.22;100.00;93747.09;4986047;28;20208;-75
2022/09/27 08:08:09;;;;;;;14.45;10.27;;;;;;;16.42;100.00;93756.03;4994038;28;20263;-74
2022/09/27 08:10:34;;;;;;;14.95;10.13;;;;;;;16.38;100.00;93752.34;4993814;28;20173;-73
2022/09/27 08:13:02;;;;;;;14.38;10.15;;;;;;;16.51;100.00;93755.19;4988308;28;20173;-79
2022/09/27 08:15:28;;;;;;;16.85;9.55;;;;;;;16.55;100.00;93760.75;4993452;28;20181;-74
2022/09/27 08:17:54;;;;;;;18.45;12.00;;;;;;;16.62;100.00;93747.97;4992531;28;20202;-77
2022/09/27 08:20:19;;;;;;;14.88;10.10;;;;;;;16.63;100.00;93711.56;4993789;28;20177;-78
2022/09/27 08:22:45;;;;;;;22.20;10.77;;;;;;;16.73;100.00;93738.88;4994081;28;20633;-76
2022/09/27 08:25:11;;;;;;;13.57;10.77;;;;;;;16.77;100.00;93731.16;4994039;28;20900;-73
2022/09/27 08:27:36;;;;;;;13.13;10.07;;;;;;;16.65;100.00;93712.09;4993548;28;20788;-73
2022/09/27 08:30:03;;;;;;;13.40;10.07;;;;;;;16.63;100.00;93722.19;4993321;28;20177;-73
2022/09/27 08:32:29;;;;;;;14.55;9.55;;;;;;;16.58;100.00;93696.44;4992735;28;20177;-75
2022/09/27 08:34:55;;;;;;;18.17;10.70;;;;;;;16.82;100.00;93723.94;4992838;28;20177;-73
2022/09/27 08:37:21;;;;;;;14.18;9.55;;;;;;;16.69;100.00;93719.22;5005916;28;20200;-73
2022/09/27 08:39:46;;;;;;;12.00;9.15;;;;;;;16.71;100.00;93717.09;4993166;28;20181;-74
2022/09/27 08:42:20;;;;;;;15.13;9.90;;;;;;;16.86;100.00;93717.00;4992939;28;20185;-73
2022/09/27 08:45:11;;;;;;;12.35;9.55;;;;;;;17.06;100.00;93717.88;4993273;28;20181;-74
2022/09/27 08:47:43;;;;;;;15.55;9.85;;;;;;;17.18;100.00;93699.72;4992756;28;20224;-74
2022/09/27 08:50:28;;;;;;;19.92;12.43;;;;;;;17.46;100.00;93712.22;4992642;28;20543;-74
2022/09/27 08:53:19;;;;;;;18.50;13.38;;;;;;;17.73;100.00;93713.56;4992411;28;20287;-74
2022/09/27 08:55:51;;;;;;;16.15;9.23;;;;;;;17.92;100.00;93725.06;4979435;28;20189;-74
2022/09/27 08:58:37;;;;;;;12.80;8.30;;;;;;;17.98;98.76;93721.28;4992258;28;20263;-74
2022/09/27 09:01:05;;;;;;;13.50;9.63;;;;;;;18.19;100.00;93716.47;4992420;28;20650;-74
2022/09/27 09:03:36;;;;;;;11.43;9.27;;;;;;;18.16;100.00;93674.44;4992214;28;20173;-74
2022/09/27 09:06:12;;;;;;;10.55;8.95;;;;;;;18.58;99.87;93708.28;4992214;28;20184;-74
2022/09/27 09:08:56;;;;;;;12.38;9.15;;;;;;;18.83;98.34;93707.91;4992055;28;20225;-74
2022/09/27 09:14:58;;;;;;;28.58;15.82;;;;;;;19.20;95.70;93723.03;4992314;28;20184;-74
2022/09/27 09:17:49;;;;;;;13.20;8.75;;;;;;;19.43;93.65;93710.66;4991991;28;20201;-74
2022/09/27 09:20:46;;;;;;;13.63;8.10;;;;;;;19.73;93.71;93712.78;4991870;28;20173;-74
2022/09/27 09:23:28;;;;;;;12.27;8.27;;;;;;;19.87;90.79;93716.28;4991810;28;20191;-74
2022/09/27 09:26:31;;;;;;;11.80;7.82;;;;;;;19.81;90.04;93709.44;4991732;28;20238;-74
2022/09/27 09:29:20;;;;;;;11.68;8.82;;;;;;;19.86;91.18;93696.00;4989569;28;20181;-74
2022/09/27 09:32:04;;;;;;;11.77;7.80;;;;;;;20.14;91.25;93698.66;4990254;28;20177;-74
2022/09/27 09:34:46;;;;;;;8.68;7.43;;;;;;;20.43;92.14;93693.78;4991674;28;20307;-74
2022/09/27 09:37:18;;;;;;;8.32;6.63;;;;;;;20.69;88.93;93689.44;4991386;28;20185;-74
2022/09/27 09:39:50;;;;;;;8.20;7.20;;;;;;;20.84;86.85;93687.53;4991765;28;20185;-74
2022/09/27 09:42:34;;;;;;;10.77;6.80;;;;;;;20.96;87.18;93688.56;4991410;28;20173;-74
2022/09/27 09:45:15;;;;;;;8.80;6.85;;;;;;;21.03;85.84;93702.31;4990846;28;20176;-74
2022/09/27 09:47:54;;;;;;;8.85;7.07;;;;;;;20.95;84.95;93686.97;4991459;28;20165;-75
2022/09/27 09:50:44;;;;;;;74.00;13.45;;;;;;;21.04;83.62;93708.44;4991529;28;20235;-74
2022/09/27 09:53:20;;;;;;;1999.90;594.45;;;;;;;20.91;84.37;93707.44;4983191;28;20223;-75
2022/09/27 09:55:58;;;;;;;1999.90;999.90;;;;;;;20.65;82.98;93709.88;4991471;28;20632;-74
2022/09/27 09:58:36;;;;;;;1852.93;273.70;;;;;;;20.56;85.48;93703.66;4991561;28;20251;-74
2022/09/27 10:01:25;;;;;;;1862.57;257.27;;;;;;;20.44;85.65;93708.72;4991482;28;20181;-75
2022/09/27 10:03:50;;;;;;;1999.90;999.90;;;;;;;20.22;85.41;93711.31;4991366;28;20172;-74
2022/09/27 10:06:18;;;;;;;1999.90;999.90;;;;;;;20.17;86.03;93704.19;4991208;28;20169;-75
2022/09/27 10:08:43;;;;;;;1715.30;211.43;;;;;;;20.11;86.10;93701.91;4991333;28;20184;-74
2022/09/27 10:11:20;;;;;;;1999.90;338.65;;;;;;;19.98;86.57;93686.69;4991202;28;20184;-74
2022/09/27 10:13:46;;;;;;;1999.90;312.27;;;;;;;19.76;87.62;93669.47;4991652;28;20180;-74
2022/09/27 10:16:15;;;;;;;1999.90;288.70;;;;;;;19.90;87.06;93674.81;4991419;28;20184;-75
2022/09/27 10:18:41;;;;;;;1238.28;153.25;;;;;;;19.86;87.49;93671.97;4991197;28;20275;-75
2022/09/27 10:21:14;;;;;;;417.75;77.93;;;;;;;19.86;88.07;93655.94;5006289;28;20180;-75
2022/09/27 10:24:12;;;;;;;344.33;35.53;;;;;;;20.03;87.50;93666.00;4993640;28;20256;-75
2022/09/27 10:26:42;;;;;;;424.10;42.90;;;;;;;20.16;88.14;93656.38;4974370;28;20211;-76
2022/09/27 10:29:33;;;;;;;466.65;37.75;;;;;;;20.09;86.32;93659.47;4992064;28;20165;-76
2022/09/27 10:32:02;;;;;;;1999.90;259.83;;;;;;;20.16;87.04;93649.16;4974420;28;20173;-77
2022/09/27 10:34:37;;;;;;;639.15;58.15;;;;;;;20.10;87.72;93657.59;4992105;28;20568;-77
2022/09/27 10:37:10;;;;;;;383.95;33.30;;;;;;;20.10;87.59;93661.03;4989465;28;20181;-76
2022/09/27 10:39:36;;;;;;;230.23;25.95;;;;;;;19.91;87.75;93629.09;4986720;28;20196;-75
2022/09/27 10:42:02;;;;;;;272.08;33.22;;;;;;;20.21;88.40;93657.06;4989189;28;20193;-75
2022/09/27 10:44:31;;;;;;;323.25;32.60;;;;;;;20.36;86.68;93657.88;4989645;28;20199;-75
2022/09/27 10:47:09;;;;;;;1999.90;283.65;;;;;;;20.31;85.81;93638.16;4981995;28;20189;-75
2022/09/27 10:49:36;;;;;;;498.80;79.65;;;;;;;20.61;86.48;93657.28;4989703;28;20164;-75
2022/09/27 10:52:12;;;;;;;735.35;69.88;;;;;;;20.77;85.71;93647.81;4991830;28;20255;-74
2022/09/27 10:54:41;;;;;;;1102.93;427.83;;;;;;;20.82;82.86;93641.56;5010495;28;20955;-75
2022/09/27 10:57:24;;;;;;;1953.18;239.98;;;;;;;20.88;84.71;93633.09;5014026;28;20174;-75
2022/09/27 10:59:56;;;;;;;762.88;216.32;;;;;;;20.69;81.83;93619.91;5014852;28;20611;-74
2022/09/27 11:02:32;;;;;;;219.15;64.88;;;;;;;20.58;82.63;93607.09;5014618;28;20180;-74
2022/09/27 11:05:26;;;;;;;131.40;49.92;;;;;;;20.60;83.95;93616.38;5014505;28;20172;-75
2022/09/27 11:07:57;;;;;;;1948.43;813.20;;;;;;;20.46;85.32;93583.56;5006531;28;20231;-74
2022/09/27 11:10:35;;;;;;;6.20;4.72;;;;;;;20.71;84.26;93612.38;5014640;28;20183;-74
2022/09/27 11:13:11;;;;;;;114.50;103.25;;;;;;;20.75;83.08;93612.56;5014368;28;20178;-74
2022/09/27 11:15:49;;;;;;;1999.90;999.90;;;;;;;20.79;81.80;93596.69;5014233;28;20200;-74
2022/09/27 11:18:32;;;;;;;1999.90;999.90;;;;;;;20.84;80.36;93613.44;5014232;28;20211;-74
2022/09/27 11:21:22;;;;;;;1999.90;999.90;;;;;;;20.75;81.07;93590.38;5014389;28;20238;-74
2022/09/27 11:24:21;;;;;;;1999.90;999.90;;;;;;;20.93;84.85;93597.44;5014285;28;20172;-74
2022/09/27 11:27:33;;;;;;;1999.90;999.90;;;;;;;21.07;82.78;93596.25;5013980;28;20192;-74
2022/09/27 11:30:04;;;;;;;1999.90;999.90;;;;;;;21.20;80.65;93593.81;5003307;28;20321;-74
2022/09/27 11:32:51;;;;;;;1999.90;999.90;;;;;;;21.51;80.58;93580.41;4994470;28;20181;-74
2022/09/27 11:35:46;;;;;;;1999.90;999.90;;;;;;;21.63;79.29;93600.13;4994464;28;20204;-74
2022/09/27 11:38:30;;;;;;;1999.90;999.90;;;;;;;21.64;79.61;93569.56;4984021;28;20312;-74
2022/09/27 11:41:20;;;;;;;1023.67;790.15;;;;;;;21.62;78.70;93565.63;4994545;28;20177;-74
2022/09/27 11:44:04;;;;;;;1485.65;999.90;;;;;;;21.66;78.20;93566.59;4994431;28;20688;-74
2022/09/27 11:46:40;;;;;;;1999.90;999.90;;;;;;;21.81;80.25;93561.56;4994122;28;20177;-75